Time;durP1;ratioP1;P1;durP2;ratioP2;P2;SDS_P1;SDS_P2;PMS_P1;PMS_P2;Temp;Humidity;BMP_temperature;BMP_pressure;BME280_temperature;BME280_humidity;BME280_pressure;Samples;Min_cycle;Max_cycle;Signal;HPM_P1;HPM_P2
2022/08/30 00:01:01;;;;;;;4.93;4.43;;;;;;;;;;4934457;29;20379;-85
2022/08/30 00:03:26;;;;;;;5.32;4.45;;;;;;;;;;4935045;29;20413;-85
2022/08/30 00:05:52;;;;;;;10.07;4.20;;;;;;;;;;4934174;29;20556;-85
2022/08/30 00:08:19;;;;;;;5.07;4.30;;;;;;;;;;4934897;29;20048;-85
2022/08/30 00:10:45;;;;;;;7.63;4.38;;;;;;;;;;4935132;29;20051;-85
2022/08/30 00:13:12;;;;;;;5.75;4.57;;;;;;;;;;4952772;28;20139;-85
2022/08/30 00:15:39;;;;;;;6.68;4.43;;;;;;;;;;4934822;29;20560;-85
2022/08/30 00:18:05;;;;;;;7.15;4.68;;;;;;;;;;4934863;29;20106;-85
2022/08/30 00:20:32;;;;;;;7.10;4.45;;;;;;;;;;4935177;29;20040;-85
2022/08/30 00:22:58;;;;;;;4.90;4.13;;;;;;;;;;4948878;29;20051;-85
2022/08/30 00:25:24;;;;;;;6.18;4.00;;;;;;;;;;4954269;29;20043;-85
2022/08/30 00:27:51;;;;;;;6.63;4.05;;;;;;;;;;4935841;29;20150;-85
2022/08/30 00:30:18;;;;;;;6.78;4.07;;;;;;;;;;4953503;29;20059;-85
2022/08/30 00:32:44;;;;;;;4.60;3.88;;;;;;;;;;4935070;29;20051;-85
2022/08/30 00:35:12;;;;;;;6.00;4.00;;;;;;;;;;4952590;29;20057;-85
2022/08/30 00:37:38;;;;;;;7.07;4.07;;;;;;;;;;4953804;28;20409;-84
2022/08/30 00:40:05;;;;;;;5.68;3.55;;;;;;;;;;4952399;28;20050;-85
2022/08/30 00:42:32;;;;;;;4.40;3.25;;;;;;;;;;4945689;29;20035;-85
2022/08/30 00:44:59;;;;;;;5.70;4.00;;;;;;;;;;4934163;29;20102;-85
2022/08/30 00:47:25;;;;;;;5.43;4.03;;;;;;;;;;4933540;29;20039;-85
2022/08/30 00:49:54;;;;;;;5.57;4.20;;;;;;;;;;4933386;29;20123;-85
2022/08/30 00:52:21;;;;;;;5.53;4.88;;;;;;;;;;4944150;29;20397;-85
2022/08/30 00:54:49;;;;;;;6.30;4.20;;;;;;;;;;4946152;29;20404;-85
2022/08/30 00:57:15;;;;;;;6.20;4.07;;;;;;;;;;4951242;28;20043;-85
2022/08/30 00:59:43;;;;;;;5.05;4.55;;;;;;;;;;4951615;28;20093;-85
2022/08/30 01:02:09;;;;;;;5.38;4.63;;;;;;;;;;4951958;28;20130;-85
2022/08/30 01:04:35;;;;;;;5.78;4.97;;;;;;;;;;4942841;29;20047;-85
2022/08/30 01:07:02;;;;;;;7.00;4.75;;;;;;;;;;4932904;29;20052;-85
2022/08/30 01:09:28;;;;;;;5.68;4.47;;;;;;;;;;4935479;29;20059;-85
2022/08/30 01:11:55;;;;;;;7.22;4.53;;;;;;;;;;4940320;29;20504;-85
2022/08/30 01:14:21;;;;;;;5.68;4.10;;;;;;;;;;4951503;29;20051;-85
2022/08/30 01:16:48;;;;;;;5.57;4.38;;;;;;;;;;4953463;29;20110;-85
2022/08/30 01:19:24;;;;;;;4.70;4.20;;;;;;;;;;4951917;29;20062;-85
2022/08/30 01:21:53;;;;;;;5.47;4.55;;;;;;;;;;4953367;29;20207;-85
2022/08/30 01:24:20;;;;;;;5.38;4.10;;;;;;;;;;4935407;29;20047;-85
2022/08/30 01:26:46;;;;;;;5.53;3.97;;;;;;;;;;4938967;28;20090;-85
2022/08/30 01:29:14;;;;;;;6.30;4.68;;;;;;;;;;4935645;29;20055;-85
2022/08/30 01:31:40;;;;;;;4.40;4.00;;;;;;;;;;4950062;28;20043;-85
2022/08/30 01:34:07;;;;;;;6.05;4.25;;;;;;;;;;4940664;29;20052;-85
2022/08/30 01:36:34;;;;;;;5.78;4.07;;;;;;;;;;4933761;29;20048;-85
2022/08/30 01:59:49;;;;;;;7.72;4.05;;;;;;;;;;5376476;23;20078;-84
2022/08/30 02:02:16;;;;;;;6.47;4.38;;;;;;;;;;4998242;23;20047;-83
2022/08/30 02:04:45;;;;;;;4.10;3.50;;;;;;;;;;4973725;28;20057;-83
2022/08/30 02:07:12;;;;;;;6.78;4.28;;;;;;;;;;4974541;28;20054;-83
2022/08/30 02:09:38;;;;;;;6.25;4.53;;;;;;;;;;4973509;28;20102;-83
2022/08/30 02:12:06;;;;;;;7.65;4.43;;;;;;;;;;4973730;28;20047;-83
2022/08/30 02:14:33;;;;;;;8.77;3.92;;;;;;;;;;4976187;28;20494;-83
2022/08/30 02:17:00;;;;;;;6.93;4.10;;;;;;;;;;4978283;28;20043;-84
2022/08/30 02:19:26;;;;;;;8.35;4.40;;;;;;;;;;4977135;28;20202;-83
2022/08/30 02:21:52;;;;;;;5.18;3.88;;;;;;;;;;4977067;28;20098;-83
2022/08/30 02:24:18;;;;;;;7.60;4.00;;;;;;;;;;4977109;28;20047;-84
2022/08/30 02:26:44;;;;;;;6.82;4.75;;;;;;;;;;4976892;28;20051;-84
2022/08/30 02:29:10;;;;;;;6.78;4.30;;;;;;;;;;4964381;28;20051;-83
2022/08/30 02:31:36;;;;;;;5.85;4.07;;;;;;;;;;4941888;29;20047;-83
2022/08/30 02:34:03;;;;;;;7.22;4.10;;;;;;;;;;4959720;28;20066;-83
2022/08/30 02:36:29;;;;;;;7.45;4.10;;;;;;;;;;4978171;28;20047;-83
2022/08/30 02:38:55;;;;;;;7.30;4.38;;;;;;;;;;4977008;28;20094;-83
2022/08/30 02:41:22;;;;;;;6.57;4.15;;;;;;;;;;4958824;28;20046;-83
2022/08/30 02:43:49;;;;;;;7.50;3.85;;;;;;;;;;4957373;29;20075;-83
2022/08/30 02:46:15;;;;;;;5.68;3.97;;;;;;;;;;4941628;29;20461;-83
2022/08/30 02:48:41;;;;;;;4.70;3.97;;;;;;;;;;4958392;28;20113;-83
2022/08/30 02:51:12;;;;;;;6.40;4.53;;;;;;;;;;4959104;28;20054;-83
2022/08/30 02:53:40;;;;;;;4.07;3.35;;;;;;;;;;4961494;28;20043;-83
2022/08/30 02:56:10;;;;;;;5.00;4.05;;;;;;;;;;4956657;29;20047;-83
2022/08/30 02:58:36;;;;;;;4.93;3.72;;;;;;;;;;4958795;28;20392;-83
2022/08/30 03:01:02;;;;;;;6.60;4.03;;;;;;;;;;4956619;29;20063;-83
2022/08/30 03:03:28;;;;;;;5.88;3.90;;;;;;;;;;4958095;29;20086;-83
2022/08/30 03:05:54;;;;;;;5.40;3.67;;;;;;;;;;4958438;28;20511;-83
2022/08/30 03:08:21;;;;;;;5.20;3.80;;;;;;;;;;4977121;28;20404;-83
2022/08/30 03:10:47;;;;;;;7.18;3.80;;;;;;;;;;4971604;28;20102;-83
2022/08/30 03:13:14;;;;;;;5.68;4.07;;;;;;;;;;4972214;28;20078;-83
2022/08/30 03:15:40;;;;;;;4.07;3.67;;;;;;;;;;4960885;28;20083;-83
2022/08/30 03:18:07;;;;;;;5.32;3.80;;;;;;;;;;4940920;29;20047;-83
2022/08/30 03:20:37;;;;;;;5.55;3.40;;;;;;;;;;4973350;28;20113;-83
2022/08/30 03:23:03;;;;;;;6.00;3.70;;;;;;;;;;4962626;28;20509;-83
2022/08/30 03:25:29;;;;;;;4.80;3.78;;;;;;;;;;4962004;28;20078;-83
2022/08/30 03:27:55;;;;;;;4.20;3.70;;;;;;;;;;4982474;28;20105;-83
2022/08/30 03:30:21;;;;;;;6.88;3.53;;;;;;;;;;4962513;28;20516;-83
2022/08/30 03:32:47;;;;;;;6.82;3.88;;;;;;;;;;4941792;29;20051;-83
2022/08/30 03:35:14;;;;;;;5.88;3.80;;;;;;;;;;4958656;28;20039;-83
2022/08/30 03:37:40;;;;;;;6.00;3.88;;;;;;;;;;4956878;29;20058;-83
2022/08/30 03:40:07;;;;;;;5.05;3.67;;;;;;;;;;4968479;28;20235;-83
2022/08/30 03:42:34;;;;;;;5.18;3.90;;;;;;;;;;4959325;28;20043;-83
2022/08/30 03:45:01;;;;;;;6.20;4.20;;;;;;;;;;4957976;28;20134;-83
2022/08/30 03:47:27;;;;;;;6.28;3.78;;;;;;;;;;4957704;28;20063;-83
2022/08/30 03:49:53;;;;;;;5.45;3.65;;;;;;;;;;4957488;29;20051;-83
2022/08/30 03:52:19;;;;;;;5.35;3.40;;;;;;;;;;4957666;28;20039;-83
2022/08/30 03:54:45;;;;;;;6.05;4.38;;;;;;;;;;4965247;28;20125;-83
2022/08/30 03:57:12;;;;;;;6.65;4.03;;;;;;;;;;4975312;28;20081;-83
2022/08/30 03:59:38;;;;;;;5.68;3.90;;;;;;;;;;4975125;28;20097;-83
2022/08/30 04:02:04;;;;;;;5.35;3.53;;;;;;;;;;4971216;28;20421;-83
2022/08/30 04:04:30;;;;;;;4.07;3.38;;;;;;;;;;4955560;28;20082;-83
2022/08/30 04:06:56;;;;;;;5.63;3.90;;;;;;;;;;4970184;28;20049;-83
2022/08/30 04:09:23;;;;;;;7.78;4.07;;;;;;;;;;4975234;28;20078;-83
2022/08/30 04:11:49;;;;;;;5.65;4.00;;;;;;;;;;4963521;28;20247;-83
2022/08/30 04:14:16;;;;;;;5.38;3.80;;;;;;;;;;4955618;28;20046;-83
2022/08/30 04:16:42;;;;;;;5.50;3.60;;;;;;;;;;4955419;29;20043;-83
2022/08/30 04:19:08;;;;;;;8.75;4.82;;;;;;;;;;4955687;28;20047;-82
2022/08/30 04:21:35;;;;;;;4.80;4.07;;;;;;;;;;4939096;28;20074;-84
2022/08/30 04:24:01;;;;;;;7.95;4.88;;;;;;;;;;4955074;28;20047;-83
2022/08/30 04:26:27;;;;;;;7.60;4.70;;;;;;;;;;4958502;28;20463;-83
2022/08/30 04:28:54;;;;;;;16.05;5.22;;;;;;;;;;4963527;28;20047;-83
2022/08/30 04:31:20;;;;;;;10.45;5.07;;;;;;;;;;4955279;29;20043;-83
2022/08/30 04:33:47;;;;;;;6.88;4.93;;;;;;;;;;4971767;28;20126;-84
2022/08/30 04:36:13;;;;;;;5.82;4.47;;;;;;;;;;4972799;28;20043;-83
2022/08/30 04:38:40;;;;;;;5.95;5.00;;;;;;;;;;4975240;28;20038;-83
2022/08/30 04:41:11;;;;;;;6.43;4.95;;;;;;;;;;4975295;28;20069;-83
2022/08/30 04:43:38;;;;;;;7.20;5.13;;;;;;;;;;4966400;28;20053;-83
2022/08/30 04:46:08;;;;;;;9.57;4.97;;;;;;;;;;4958263;28;20047;-83
2022/08/30 04:48:34;;;;;;;6.43;5.68;;;;;;;;;;4955991;28;20126;-83
2022/08/30 04:51:03;;;;;;;6.07;4.75;;;;;;;;;;4955386;29;20043;-83
2022/08/30 04:53:30;;;;;;;7.00;3.25;;;;;;;;;;4954243;28;20046;-83
2022/08/30 04:55:56;;;;;;;4.22;3.42;;;;;;;;;;4971694;28;20121;-83
2022/08/30 04:58:23;;;;;;;4.10;3.70;;;;;;;;;;4966735;28;20039;-83
2022/08/30 05:00:49;;;;;;;4.93;3.42;;;;;;;;;;4954429;29;20056;-83
2022/08/30 05:03:16;;;;;;;4.97;3.58;;;;;;;;;;4966431;28;20134;-83
2022/08/30 05:05:46;;;;;;;4.50;3.45;;;;;;;;;;4974086;28;20050;-83
2022/08/30 05:08:13;;;;;;;4.57;3.42;;;;;;;;;;4973248;28;20050;-83
2022/08/30 05:10:42;;;;;;;5.05;3.70;;;;;;;;;;4960339;28;20134;-83
2022/08/30 05:13:08;;;;;;;6.70;4.10;;;;;;;;;;4965600;28;20078;-82
2022/08/30 05:15:35;;;;;;;5.28;4.30;;;;;;;;;;4963475;28;20138;-83
2022/08/30 05:18:01;;;;;;;5.63;4.45;;;;;;;;;;4969321;28;20122;-83
2022/08/30 05:20:27;;;;;;;6.72;5.07;;;;;;;;;;4938153;29;20148;-83
2022/08/30 05:22:53;;;;;;;6.47;4.60;;;;;;;;;;4958217;28;20053;-83
2022/08/30 05:25:21;;;;;;;6.18;4.57;;;;;;;;;;4956683;28;20050;-83
2022/08/30 05:27:48;;;;;;;6.78;5.13;;;;;;;;;;4973424;28;20389;-83
2022/08/30 05:30:15;;;;;;;7.40;4.78;;;;;;;;;;4957518;28;20043;-84
2022/08/30 05:32:41;;;;;;;5.90;4.65;;;;;;;;;;4967760;28;20050;-84
2022/08/30 05:35:08;;;;;;;5.80;5.05;;;;;;;;;;4964352;28;20051;-83
2022/08/30 05:37:34;;;;;;;10.70;6.32;;;;;;;;;;4966570;29;20133;-83
2022/08/30 05:40:01;;;;;;;7.45;5.00;;;;;;;;;;4965335;28;20042;-83
2022/08/30 05:42:27;;;;;;;10.13;5.97;;;;;;;;;;4964082;28;20504;-84
2022/08/30 05:44:53;;;;;;;8.00;5.57;;;;;;;;;;4938428;29;20055;-83
2022/08/30 05:47:20;;;;;;;7.28;4.60;;;;;;;;;;4965234;28;20058;-83
2022/08/30 05:49:47;;;;;;;10.40;5.32;;;;;;;;;;4960325;28;20043;-84
2022/08/30 05:52:16;;;;;;;7.65;5.10;;;;;;;;;;4977338;28;20080;-84
2022/08/30 05:54:43;;;;;;;7.57;4.95;;;;;;;;;;4972873;28;20043;-84
2022/08/30 05:57:09;;;;;;;6.63;4.90;;;;;;;;;;4962676;28;20035;-83
2022/08/30 05:59:35;;;;;;;6.53;4.93;;;;;;;;;;4977750;28;20047;-84
2022/08/30 06:02:01;;;;;;;5.47;4.70;;;;;;;;;;4950719;29;20063;-84
2022/08/30 06:04:27;;;;;;;6.07;5.10;;;;;;;;;;4972490;28;20575;-83
2022/08/30 06:06:53;;;;;;;5.82;5.22;;;;;;;;;;4977463;28;20126;-83
2022/08/30 06:09:19;;;;;;;7.38;5.32;;;;;;;;;;4967845;28;20047;-83
2022/08/30 06:11:46;;;;;;;6.55;5.40;;;;;;;;;;4959132;28;20043;-82
2022/08/30 06:14:12;;;;;;;9.43;5.88;;;;;;;;;;4978157;28;20047;-82
2022/08/30 06:16:39;;;;;;;9.43;5.60;;;;;;;;;;4975633;28;20053;-83
2022/08/30 06:19:07;;;;;;;5.57;4.97;;;;;;;;;;4971222;28;20122;-82
2022/08/30 06:21:34;;;;;;;7.85;5.35;;;;;;;;;;4960628;28;20093;-81
2022/08/30 06:24:01;;;;;;;6.10;5.43;;;;;;;;;;4967671;28;20131;-82
2022/08/30 06:26:27;;;;;;;9.70;6.22;;;;;;;;;;4959975;28;20417;-81
2022/08/30 06:28:54;;;;;;;7.00;5.43;;;;;;;;;;4966894;28;20051;-81
2022/08/30 06:31:22;;;;;;;7.90;5.63;;;;;;;;;;4964082;28;20098;-81
2022/08/30 06:33:48;;;;;;;7.25;5.40;;;;;;;;;;4957026;29;20047;-81
2022/08/30 06:36:17;;;;;;;9.07;5.07;;;;;;;;;;4958267;28;20050;-82
2022/08/30 06:38:44;;;;;;;6.07;4.30;;;;;;;;;;4960924;28;20070;-81
2022/08/30 06:41:11;;;;;;;6.28;4.95;;;;;;;;;;4968448;28;20031;-81
2022/08/30 06:43:38;;;;;;;6.78;4.90;;;;;;;;;;4978819;28;20047;-81
2022/08/30 06:46:11;;;;;;;7.10;4.20;;;;;;;;;;4973782;28;20485;-81
2022/08/30 06:48:38;;;;;;;5.80;4.18;;;;;;;;;;4958216;29;20497;-82
2022/08/30 06:51:04;;;;;;;7.20;4.50;;;;;;;;;;4968360;28;20043;-83
2022/08/30 06:53:30;;;;;;;5.65;3.90;;;;;;;;;;4976590;28;20039;-82
2022/08/30 06:56:03;;;;;;;6.25;3.90;;;;;;;;;;4964943;28;20045;-82
2022/08/30 06:58:29;;;;;;;7.68;3.65;;;;;;;;;;4965126;28;20042;-82
2022/08/30 07:00:56;;;;;;;6.20;3.78;;;;;;;;;;4968263;28;20459;-82
2022/08/30 07:03:22;;;;;;;4.88;3.78;;;;;;;;;;4958079;29;20055;-82
2022/08/30 07:05:48;;;;;;;5.20;3.47;;;;;;;;;;4956607;28;20122;-81
2022/08/30 07:08:15;;;;;;;7.55;3.45;;;;;;;;;;4958456;28;20058;-83
2022/08/30 07:10:41;;;;;;;4.38;3.35;;;;;;;;;;4958484;28;20047;-82
2022/08/30 07:13:08;;;;;;;4.53;2.88;;;;;;;;;;4958943;28;20055;-82
2022/08/30 07:15:34;;;;;;;5.53;3.20;;;;;;;;;;4959096;29;20043;-82
2022/08/30 07:20:45;;;;;;;4.55;2.90;;;;;;;;;;4966141;28;20393;-83
2022/08/30 07:23:11;;;;;;;4.38;2.67;;;;;;;;;;4965336;28;20600;-83
2022/08/30 07:25:37;;;;;;;4.13;2.53;;;;;;;;;;4969689;28;20047;-83
2022/08/30 07:28:04;;;;;;;4.07;2.10;;;;;;;;;;4976585;28;20043;-83
2022/08/30 07:30:30;;;;;;;3.90;2.60;;;;;;;;;;4967659;28;20039;-83
2022/08/30 07:32:56;;;;;;;7.68;2.53;;;;;;;;;;4962823;28;20511;-83
2022/08/30 07:35:23;;;;;;;5.18;2.55;;;;;;;;;;4970675;28;20051;-83
2022/08/30 07:37:49;;;;;;;6.32;2.50;;;;;;;;;;4955876;29;20047;-83
2022/08/30 07:40:15;;;;;;;3.53;2.60;;;;;;;;;;4940124;28;20076;-83
2022/08/30 07:42:41;;;;;;;6.68;2.42;;;;;;;;;;4960070;29;20079;-83
2022/08/30 07:45:08;;;;;;;3.65;2.30;;;;;;;;;;4985607;28;20078;-83
2022/08/30 07:47:34;;;;;;;5.90;2.67;;;;;;;;;;4976661;28;20074;-83
2022/08/30 07:50:00;;;;;;;3.70;2.20;;;;;;;;;;4968106;28;20066;-83
2022/08/30 07:52:27;;;;;;;2.80;2.17;;;;;;;;;;4977248;28;20042;-84
2022/08/30 07:54:56;;;;;;;4.13;2.53;;;;;;;;;;4977432;28;20051;-83
2022/08/30 07:57:23;;;;;;;4.25;2.60;;;;;;;;;;4973427;28;20043;-83
2022/08/30 07:59:49;;;;;;;4.40;2.40;;;;;;;;;;4977288;28;20051;-83
2022/08/30 08:02:15;;;;;;;3.05;2.20;;;;;;;;;;4966609;28;20046;-83
2022/08/30 08:04:42;;;;;;;4.53;2.20;;;;;;;;;;4967045;28;20370;-83
2022/08/30 08:07:08;;;;;;;3.63;2.10;;;;;;;;;;4956752;28;20043;-83
2022/08/30 08:09:34;;;;;;;3.35;2.15;;;;;;;;;;4957936;28;20039;-84
2022/08/30 08:12:01;;;;;;;5.35;2.38;;;;;;;;;;4955934;28;20584;-84
2022/08/30 08:14:27;;;;;;;4.03;2.38;;;;;;;;;;4955904;29;20051;-83
2022/08/30 08:16:53;;;;;;;4.30;2.45;;;;;;;;;;4939864;29;20134;-83
2022/08/30 08:19:19;;;;;;;2.78;2.10;;;;;;;;;;4940413;28;20382;-83
2022/08/30 08:21:45;;;;;;;4.80;2.20;;;;;;;;;;4966558;28;20050;-84
2022/08/30 08:24:12;;;;;;;5.70;2.65;;;;;;;;;;4957440;28;20051;-84
2022/08/30 08:26:38;;;;;;;5.93;2.45;;;;;;;;;;4939362;29;20075;-85
2022/08/30 08:29:05;;;;;;;3.22;2.13;;;;;;;;;;4957218;28;20043;-84
2022/08/30 08:31:32;;;;;;;4.65;2.00;;;;;;;;;;4970248;28;20043;-83
2022/08/30 08:33:58;;;;;;;5.55;2.10;;;;;;;;;;4971866;28;20121;-84
2022/08/30 08:36:25;;;;;;;5.30;2.30;;;;;;;;;;4964328;28;20043;-83
2022/08/30 08:38:51;;;;;;;3.38;2.53;;;;;;;;;;4962425;28;20055;-83
2022/08/30 08:41:26;;;;;;;4.18;2.22;;;;;;;;;;4939669;29;20102;-84
2022/08/30 08:43:52;;;;;;;5.82;2.58;;;;;;;;;;4954796;28;20098;-83
2022/08/30 08:46:30;;;;;;;3.25;2.20;;;;;;;;;;4962436;28;20500;-84
2022/08/30 08:48:58;;;;;;;3.53;2.20;;;;;;;;;;4971827;28;20054;-84
2022/08/30 08:54:17;;;;;;;3.45;2.25;;;;;;;;;;4957438;29;20051;-84
2022/08/30 08:56:44;;;;;;;3.65;2.00;;;;;;;;;;4955876;29;20043;-84
2022/08/30 08:59:10;;;;;;;5.55;2.30;;;;;;;;;;4969796;28;20400;-84
2022/08/30 09:01:37;;;;;;;3.08;1.92;;;;;;;;;;4968299;28;20051;-83
2022/08/30 09:04:24;;;;;;;4.07;2.20;;;;;;;;;;4938843;29;20043;-83
2022/08/30 09:06:53;;;;;;;3.65;2.00;;;;;;;;;;4954486;29;20047;-84
2022/08/30 09:09:21;;;;;;;3.92;2.20;;;;;;;;;;4954455;29;20045;-83
2022/08/30 09:11:48;;;;;;;3.67;2.10;;;;;;;;;;4957773;28;20079;-83
2022/08/30 09:14:35;;;;;;;3.95;2.10;;;;;;;;;;4935493;28;20055;-81
2022/08/30 09:17:01;;;;;;;;;;;;;;;;;;4963046;28;20058;-82
2022/08/30 09:19:30;;;;;;;3.80;2.33;;;;;;;;;;4957298;28;19922;-84
2022/08/30 09:22:01;;;;;;;3.08;2.20;;;;;;;;;;4962337;28;20114;-83
2022/08/30 09:24:36;;;;;;;3.83;2.03;;;;;;;;;;4963973;28;20492;-82
2022/08/30 09:27:13;;;;;;;4.22;1.90;;;;;;;;;;4955618;28;20050;-82
2022/08/30 09:29:49;;;;;;;4.65;2.15;;;;;;;;;;4947756;28;20523;-82
2022/08/30 09:32:23;;;;;;;3.10;2.13;;;;;;;;;;4953883;28;20511;-82
2022/08/30 09:34:49;;;;;;;2.30;1.98;;;;;;;;;;4955789;28;20097;-82
2022/08/30 09:37:27;;;;;;;3.22;2.10;;;;;;;;;;4938853;29;20078;-83
2022/08/30 09:39:53;;;;;;;3.40;2.25;;;;;;;;;;4954483;28;20047;-82
2022/08/30 09:42:22;;;;;;;4.45;2.20;;;;;;;;;;4942235;28;20035;-83
2022/08/30 09:44:48;;;;;;;3.97;2.10;;;;;;;;;;4943602;28;20505;-82
2022/08/30 09:47:23;;;;;;;4.57;2.30;;;;;;;;;;4939368;29;20528;-83
2022/08/30 09:49:49;;;;;;;5.83;2.20;;;;;;;;;;4955859;28;20085;-83
2022/08/30 09:52:38;;;;;;;4.32;2.22;;;;;;;;;;4965385;28;20046;-84
2022/08/30 09:55:23;;;;;;;3.17;1.98;;;;;;;;;;4974032;28;20082;-84
2022/08/30 09:58:11;;;;;;;3.78;2.22;;;;;;;;;;4957682;28;20043;-84
2022/08/30 10:00:39;;;;;;;3.50;2.28;;;;;;;;;;4938903;29;20055;-84
2022/08/30 10:03:20;;;;;;;4.07;2.10;;;;;;;;;;4953475;28;20114;-84
2022/08/30 10:05:46;;;;;;;2.72;1.85;;;;;;;;;;4941497;28;20047;-84
2022/08/30 10:08:19;;;;;;;3.83;2.20;;;;;;;;;;4954812;29;20047;-84
2022/08/30 10:10:48;;;;;;;3.47;2.03;;;;;;;;;;4952156;29;20518;-84
2022/08/30 10:13:14;;;;;;;4.70;2.10;;;;;;;;;;4953631;28;20047;-83
2022/08/30 10:15:45;;;;;;;1.83;1.67;;;;;;;;;;4953886;28;20047;-84
2022/08/30 10:18:28;;;;;;;3.40;1.85;;;;;;;;;;4954516;29;20105;-84
2022/08/30 10:21:11;;;;;;;4.32;2.53;;;;;;;;;;4940157;29;20115;-83
2022/08/30 10:23:40;;;;;;;2.72;1.73;;;;;;;;;;4955867;28;20393;-83
2022/08/30 10:26:12;;;;;;;5.00;1.83;;;;;;;;;;4949324;28;20059;-84
2022/08/30 10:28:44;;;;;;;4.72;1.83;;;;;;;;;;4938243;29;20126;-83
2022/08/30 10:31:14;;;;;;;3.22;1.80;;;;;;;;;;4963586;28;20047;-84
2022/08/30 10:33:46;;;;;;;2.90;1.67;;;;;;;;;;4939040;28;20140;-84
2022/08/30 10:36:13;;;;;;;2.92;1.70;;;;;;;;;;4957809;28;20040;-83
2022/08/30 10:38:41;;;;;;;4.28;1.80;;;;;;;;;;4941463;28;20051;-84
2022/08/30 10:41:29;;;;;;;2.53;1.75;;;;;;;;;;4968977;28;20058;-83
2022/08/30 10:44:01;;;;;;;4.32;1.80;;;;;;;;;;4957098;29;20039;-83
2022/08/30 10:46:49;;;;;;;3.60;1.45;;;;;;;;;;4957467;28;20051;-83
2022/08/30 10:49:18;;;;;;;2.55;1.63;;;;;;;;;;4957729;28;20195;-85
2022/08/30 10:51:54;;;;;;;2.70;1.80;;;;;;;;;;4973731;28;20046;-84
2022/08/30 10:54:27;;;;;;;2.95;1.70;;;;;;;;;;4953427;29;20117;-85
2022/08/30 10:56:54;;;;;;;3.22;1.67;;;;;;;;;;4957728;28;20382;-85
2022/08/30 10:59:20;;;;;;;2.40;1.90;;;;;;;;;;4959118;28;20043;-85
2022/08/30 11:01:53;;;;;;;4.57;2.22;;;;;;;;;;4946590;28;20082;-84
2022/08/30 11:04:34;;;;;;;3.20;1.70;;;;;;;;;;4958993;28;20055;-84
2022/08/30 11:07:18;;;;;;;3.67;2.20;;;;;;;;;;4957563;28;20127;-84
2022/08/30 11:10:05;;;;;;;2.80;1.85;;;;;;;;;;4974132;28;20043;-85
2022/08/30 11:12:34;;;;;;;4.00;1.95;;;;;;;;;;4956670;28;20062;-85
2022/08/30 11:15:11;;;;;;;3.40;2.40;;;;;;;;;;4973672;28;20502;-84
2022/08/30 11:17:45;;;;;;;2.30;1.85;;;;;;;;;;4973593;28;20039;-84
2022/08/30 11:20:29;;;;;;;3.20;2.25;;;;;;;;;;4957137;28;20122;-85
2022/08/30 11:23:13;;;;;;;4.43;2.13;;;;;;;;;;4963567;28;20039;-85
2022/08/30 11:25:52;;;;;;;3.42;1.80;;;;;;;;;;4947878;29;20051;-84
2022/08/30 11:28:36;;;;;;;3.17;1.60;;;;;;;;;;4957933;29;20126;-83
2022/08/30 11:31:09;;;;;;;5.38;2.10;;;;;;;;;;4963846;28;20047;-85
2022/08/30 11:33:46;;;;;;;3.72;1.73;;;;;;;;;;4945260;29;20043;-84
2022/08/30 11:36:37;;;;;;;3.50;2.17;;;;;;;;;;4947150;29;20066;-84
2022/08/30 11:39:22;;;;;;;3.00;1.83;;;;;;;;;;4954271;29;20043;-84
2022/08/30 11:42:08;;;;;;;3.75;1.98;;;;;;;;;;4960847;28;20126;-84
2022/08/30 11:44:35;;;;;;;2.13;1.83;;;;;;;;;;4972238;28;20497;-84
2022/08/30 11:47:02;;;;;;;3.28;2.03;;;;;;;;;;4952281;28;20480;-84
2022/08/30 11:49:44;;;;;;;3.17;1.70;;;;;;;;;;4945748;29;20409;-83
2022/08/30 11:52:38;;;;;;;2.58;1.80;;;;;;;;;;4952915;28;20055;-84
2022/08/30 11:55:22;;;;;;;3.45;2.20;;;;;;;;;;4933602;28;20150;-84
2022/08/30 11:57:58;;;;;;;2.35;1.70;;;;;;;;;;4956172;28;20505;-84
2022/08/30 12:00:54;;;;;;;2.60;1.83;;;;;;;;;;4964990;28;20089;-84
2022/08/30 12:03:20;;;;;;;3.40;1.70;;;;;;;;;;4981889;28;20058;-84
2022/08/30 12:05:48;;;;;;;2.60;1.90;;;;;;;;;;4972297;28;20058;-84
2022/08/30 12:08:23;;;;;;;3.30;1.90;;;;;;;;;;4964034;28;20058;-85
2022/08/30 12:10:51;;;;;;;2.40;1.60;;;;;;;;;;4961691;28;20425;-84
2022/08/30 12:13:36;;;;;;;3.40;1.90;;;;;;;;;;4941620;29;20039;-84
2022/08/30 12:16:02;;;;;;;5.05;1.60;;;;;;;;;;4958529;28;20507;-84
2022/08/30 12:18:32;;;;;;;2.15;1.67;;;;;;;;;;4957376;28;20039;-84
2022/08/30 12:21:25;;;;;;;3.53;1.83;;;;;;;;;;4941173;28;20078;-84
2022/08/30 12:24:06;;;;;;;2.63;1.90;;;;;;;;;;4954434;28;20051;-84
2022/08/30 12:26:34;;;;;;;3.90;2.03;;;;;;;;;;4939936;29;20052;-83
2022/08/30 12:29:10;;;;;;;5.22;2.13;;;;;;;;;;4955781;29;20054;-83
2022/08/30 12:31:41;;;;;;;3.55;1.83;;;;;;;;;;4955400;29;20456;-83
2022/08/30 12:34:08;;;;;;;3.78;1.70;;;;;;;;;;4960255;28;20043;-83
2022/08/30 12:36:39;;;;;;;1.98;1.70;;;;;;;;;;4941511;28;20051;-83
2022/08/30 12:39:08;;;;;;;1.80;1.60;;;;;;;;;;4967936;28;20043;-83
2022/08/30 12:41:34;;;;;;;3.97;1.90;;;;;;;;;;4975776;28;20125;-83
2022/08/30 12:44:01;;;;;;;3.95;2.38;;;;;;;;;;4975633;28;20511;-83
2022/08/30 12:46:27;;;;;;;2.88;1.90;;;;;;;;;;4975915;28;20050;-82
2022/08/30 12:48:53;;;;;;;2.95;1.90;;;;;;;;;;4958156;28;20047;-82
2022/08/30 12:51:34;;;;;;;3.92;1.90;;;;;;;;;;4974369;28;20047;-83
2022/08/30 12:54:05;;;;;;;3.53;2.20;;;;;;;;;;4975777;28;20050;-83
2022/08/30 12:56:49;;;;;;;2.40;1.73;;;;;;;;;;4955344;29;20556;-82
2022/08/30 12:59:35;;;;;;;3.60;1.83;;;;;;;;;;4947151;29;20071;-82
2022/08/30 13:02:13;;;;;;;2.03;1.75;;;;;;;;;;4964761;28;20055;-82
2022/08/30 13:04:40;;;;;;;4.15;2.25;;;;;;;;;;4965715;28;20094;-83
2022/08/30 13:07:06;;;;;;;3.88;1.88;;;;;;;;;;4955172;28;20392;-83
2022/08/30 13:09:34;;;;;;;2.10;1.90;;;;;;;;;;4959465;28;20097;-82
2022/08/30 13:12:21;;;;;;;3.80;1.80;;;;;;;;;;4958965;28;20043;-82
2022/08/30 13:14:48;;;;;;;3.53;1.80;;;;;;;;;;4975483;28;20078;-82
2022/08/30 13:17:23;;;;;;;5.32;2.10;;;;;;;;;;4956825;28;20046;-83
2022/08/30 13:20:04;;;;;;;2.33;1.88;;;;;;;;;;4955300;28;20090;-83
2022/08/30 13:22:36;;;;;;;3.20;1.92;;;;;;;;;;4953567;28;20040;-83
2022/08/30 13:25:03;;;;;;;2.95;1.92;;;;;;;;;;4954896;28;20047;-83
2022/08/30 13:27:29;;;;;;;3.67;1.83;;;;;;;;;;4973292;28;20416;-83
2022/08/30 13:29:56;;;;;;;3.70;2.17;;;;;;;;;;4941381;29;20043;-82
2022/08/30 13:32:22;;;;;;;5.25;1.95;;;;;;;;;;4955445;28;20089;-83
2022/08/30 13:34:48;;;;;;;5.97;2.20;;;;;;;;;;4938562;29;20296;-83
2022/08/30 13:37:17;;;;;;;2.78;2.17;;;;;;;;;;4938397;29;20130;-83
2022/08/30 13:39:44;;;;;;;2.15;1.80;;;;;;;;;;4954601;29;20085;-83
2022/08/30 13:42:10;;;;;;;2.42;1.75;;;;;;;;;;4954567;29;20043;-82
2022/08/30 13:44:36;;;;;;;2.55;1.95;;;;;;;;;;4961827;28;20042;-83
2022/08/30 13:47:02;;;;;;;3.72;2.10;;;;;;;;;;4971019;28;20050;-83
2022/08/30 13:49:30;;;;;;;3.20;2.00;;;;;;;;;;4962157;28;20520;-83
2022/08/30 13:51:56;;;;;;;3.00;1.75;;;;;;;;;;4957104;28;20506;-82
2022/08/30 13:54:23;;;;;;;3.47;1.92;;;;;;;;;;4956159;28;20077;-83
2022/08/30 13:56:50;;;;;;;3.95;2.25;;;;;;;;;;4946973;28;20058;-82
2022/08/30 13:59:16;;;;;;;3.42;1.70;;;;;;;;;;4944138;29;20047;-82
2022/08/30 14:01:43;;;;;;;5.43;2.10;;;;;;;;;;4953849;29;20051;-82
2022/08/30 14:04:09;;;;;;;2.17;1.73;;;;;;;;;;4955954;28;20048;-82
2022/08/30 14:06:36;;;;;;;3.75;1.80;;;;;;;;;;4954465;29;20108;-84
2022/08/30 14:09:04;;;;;;;3.25;2.10;;;;;;;;;;4958613;28;20043;-83
2022/08/30 14:11:30;;;;;;;3.70;1.98;;;;;;;;;;4977811;28;20515;-83
2022/08/30 14:13:56;;;;;;;2.83;2.10;;;;;;;;;;4982017;28;20030;-83
2022/08/30 14:16:22;;;;;;;2.50;1.80;;;;;;;;;;4987733;28;20068;-83
2022/08/30 14:18:49;;;;;;;3.58;1.83;;;;;;;;;;4974945;28;20098;-82
2022/08/30 14:21:15;;;;;;;3.53;1.88;;;;;;;;;;4960101;28;20504;-82
2022/08/30 14:23:41;;;;;;;3.25;1.90;;;;;;;;;;4959675;28;20051;-82
2022/08/30 14:26:16;;;;;;;2.67;2.10;;;;;;;;;;4962584;28;20074;-83
2022/08/30 14:28:43;;;;;;;2.60;2.00;;;;;;;;;;4969908;28;20448;-83
2022/08/30 14:31:10;;;;;;;2.97;2.10;;;;;;;;;;4973611;28;20051;-83
2022/08/30 14:33:36;;;;;;;4.20;2.35;;;;;;;;;;4976473;28;20386;-83
2022/08/30 14:36:02;;;;;;;5.25;1.90;;;;;;;;;;4974722;28;20089;-83
2022/08/30 14:38:28;;;;;;;5.40;2.20;;;;;;;;;;4945155;29;20047;-83
2022/08/30 14:40:54;;;;;;;2.80;1.98;;;;;;;;;;4966606;28;20039;-83
2022/08/30 14:43:20;;;;;;;2.40;2.15;;;;;;;;;;4972787;28;20139;-83
2022/08/30 14:45:46;;;;;;;4.85;2.50;;;;;;;;;;4961822;28;20426;-83
2022/08/30 14:48:12;;;;;;;2.90;2.10;;;;;;;;;;4945557;29;20575;-83
2022/08/30 14:50:39;;;;;;;2.75;1.88;;;;;;;;;;4957911;28;20629;-84
2022/08/30 14:53:06;;;;;;;3.45;1.90;;;;;;;;;;4965842;28;20485;-84
2022/08/30 14:55:32;;;;;;;3.03;2.00;;;;;;;;;;4960314;28;20458;-84
2022/08/30 14:57:59;;;;;;;3.47;1.90;;;;;;;;;;4941350;28;20437;-85
2022/08/30 15:00:26;;;;;;;4.55;2.25;;;;;;;;;;4953814;28;20047;-84
2022/08/30 15:02:52;;;;;;;3.45;2.10;;;;;;;;;;4946247;28;20093;-83
2022/08/30 15:05:18;;;;;;;4.10;2.08;;;;;;;;;;4964458;28;20043;-83
2022/08/30 15:07:49;;;;;;;3.30;2.10;;;;;;;;;;4947562;28;20116;-83
2022/08/30 15:10:15;;;;;;;3.55;2.10;;;;;;;;;;4957617;28;20145;-83
2022/08/30 15:12:41;;;;;;;3.65;1.90;;;;;;;;;;4963194;28;20404;-84
2022/08/30 15:15:08;;;;;;;4.18;2.30;;;;;;;;;;4961356;28;20121;-83
2022/08/30 15:17:34;;;;;;;3.38;1.90;;;;;;;;;;4978312;28;20078;-85
2022/08/30 15:20:00;;;;;;;2.92;2.00;;;;;;;;;;4955458;28;20105;-84